Aviation Digital Data Service (ADDS)

Output produced by METARs form (0256 UTC 21 August 2017)
found at http://aviationweather.gov/adds/metars/
 
KLYH 202340Z 2100/2124 14005KT P6SM FEW060 
     FM211000 00000KT 5SM BR SKC 
     FM211300 00000KT P6SM FEW250 
     FM211800 20005KT P6SM SCT060